createdAt,value
2023-05-10T00:02:43.342Z,98570.00
2023-05-10T00:12:44.885Z,98566.47
2023-05-10T00:22:46.282Z,98558.63
2023-05-10T00:32:49.200Z,98565.06
2023-05-10T00:42:50.823Z,98559.69
2023-05-10T00:52:52.508Z,98552.28
2023-05-10T01:02:57.148Z,98558.03
2023-05-10T01:12:58.632Z,98559.09
2023-05-10T01:23:20.099Z,98558.84
2023-05-10T01:33:42.808Z,98561.19
2023-05-10T01:44:23.305Z,98562.25
2023-05-10T01:54:24.868Z,98563.06
2023-05-10T02:04:26.682Z,98558.13
2023-05-10T02:14:28.080Z,98563.53
2023-05-10T02:24:29.514Z,98581.38
2023-05-10T02:34:31.046Z,98580.78
2023-05-10T02:44:32.838Z,98592.00
2023-05-10T02:54:35.319Z,98606.94
2023-05-10T03:04:36.747Z,98607.38
2023-05-10T03:14:54.333Z,98595.56
2023-05-10T03:24:57.416Z,98611.13
2023-05-10T03:34:58.953Z,98622.97
2023-05-10T03:45:00.338Z,98623.81
2023-05-10T03:55:03.747Z,98632.72
2023-05-10T04:05:05.381Z,98637.53
2023-05-10T04:15:07.785Z,98638.94
2023-05-10T04:25:09.461Z,98636.47
2023-05-10T04:35:11.548Z,98639.41
2023-05-10T04:45:13.197Z,98634.81
2023-05-10T04:55:14.616Z,98649.34
2023-05-10T05:05:15.992Z,98656.03
2023-05-10T05:15:17.861Z,98667.44
2023-05-10T05:25:19.324Z,98670.13
2023-05-10T05:35:20.803Z,98680.31
2023-05-10T05:45:22.197Z,98692.31
2023-05-10T05:55:24.890Z,98696.09
2023-05-10T06:05:26.320Z,98704.19
2023-05-10T06:15:28.182Z,98719.25
2023-05-10T06:25:29.762Z,98734.22
2023-05-10T06:35:32.221Z,98743.63
2023-05-10T06:45:33.762Z,98759.88
2023-05-10T06:55:35.219Z,98769.03
2023-05-10T07:05:36.985Z,98771.13
2023-05-10T07:15:38.435Z,98765.72
2023-05-10T07:25:40.027Z,98772.41
2023-05-10T07:35:41.523Z,98775.47
2023-05-10T07:45:43.263Z,98787.53
2023-05-10T07:55:44.670Z,98788.38
2023-05-10T08:05:46.238Z,98791.66
2023-05-10T08:15:48.347Z,98801.16
2023-05-10T08:25:49.925Z,98805.59
2023-05-10T08:35:51.308Z,98799.72
2023-05-10T08:45:52.701Z,98814.72
2023-05-10T08:55:54.214Z,98823.44
2023-05-10T09:05:56.739Z,98832.94
2023-05-10T09:16:02.130Z,98841.66
2023-05-10T09:26:08.470Z,98843.13
2023-05-10T09:36:09.985Z,98850.25
2023-05-10T09:46:12.121Z,98858.50
2023-05-10T09:56:13.705Z,98871.47
2023-05-10T10:06:29.511Z,98860.84
2023-05-10T10:16:32.268Z,98874.00
2023-05-10T10:26:38.939Z,98874.53
2023-05-10T10:36:45.846Z,98884.38
2023-05-10T10:47:24.958Z,98893.97
2023-05-10T10:57:29.557Z,98905.56
2023-05-10T11:07:31.011Z,98900.66
2023-05-10T11:17:33.887Z,98909.50
2023-05-10T11:27:38.534Z,98912.50
2023-05-10T11:37:42.222Z,98908.97
2023-05-10T11:47:44.475Z,98920.34
2023-05-10T11:57:46.908Z,98912.38
2023-05-10T12:07:48.432Z,98923.81
2023-05-10T12:17:50.216Z,98925.69
2023-05-10T12:27:58.570Z,98919.38
2023-05-10T12:38:00.155Z,98931.66
2023-05-10T12:48:01.585Z,98945.84
2023-05-10T12:58:03.143Z,98945.03
2023-05-10T13:08:04.558Z,98946.59
2023-05-10T13:18:06.177Z,98947.13
2023-05-10T13:28:07.854Z,98947.25
2023-05-10T13:38:09.514Z,98945.91
2023-05-10T13:48:11.047Z,98950.69
2023-05-10T13:58:13.649Z,98950.16
2023-05-10T14:08:15.535Z,98948.88
2023-05-10T14:18:17.016Z,98936.34
2023-05-10T14:28:21.789Z,98937.28
2023-05-10T14:38:23.265Z,98946.81
2023-05-10T14:48:24.661Z,98939.47
2023-05-10T14:58:26.416Z,98941.00
2023-05-10T15:08:27.874Z,98941.91
2023-05-10T15:18:29.330Z,98936.38
2023-05-10T15:28:32.443Z,98943.28
2023-05-10T15:38:34.421Z,98949.28
2023-05-10T15:48:36.388Z,98947.19
2023-05-10T15:58:41.190Z,98960.41
2023-05-10T16:08:42.621Z,98964.22
2023-05-10T16:18:44.125Z,98972.41
2023-05-10T16:28:45.607Z,98980.25
2023-05-10T16:38:47.032Z,98992.13
2023-05-10T16:48:48.403Z,98992.63
2023-05-10T16:58:49.900Z,98995.63
2023-05-10T17:08:51.645Z,99014.00
2023-05-10T17:18:53.380Z,99026.69
2023-05-10T17:28:54.908Z,99024.09
2023-05-10T17:38:56.282Z,99022.03
2023-05-10T17:48:57.827Z,99016.25
2023-05-10T17:58:59.439Z,99033.09
2023-05-10T18:09:00.821Z,99049.94
2023-05-10T18:19:02.435Z,99054.53
2023-05-10T18:29:04.157Z,99060.56
2023-05-10T18:39:05.563Z,99058.91
2023-05-10T18:49:08.438Z,99066.41
2023-05-10T18:59:10.058Z,99072.22
2023-05-10T19:09:11.814Z,99072.88
2023-05-10T19:19:14.326Z,99077.69
2023-05-10T19:29:15.732Z,99087.84
2023-05-10T19:39:17.155Z,99090.78
2023-05-10T19:49:18.682Z,99097.59
2023-05-10T19:59:20.073Z,99108.81
2023-05-10T20:09:21.454Z,99106.56
2023-05-10T20:19:22.841Z,99104.28
2023-05-10T20:29:24.396Z,99098.06
2023-05-10T20:39:26.013Z,99108.44
2023-05-10T20:49:27.928Z,99092.91
2023-05-10T20:59:29.322Z,99093.97
2023-05-10T21:09:30.734Z,99085.88
2023-05-10T21:19:32.163Z,99103.53
2023-05-10T21:29:34.181Z,99114.50
2023-05-10T21:39:36.007Z,99100.00
2023-05-10T21:49:37.433Z,99095.06
2023-05-10T21:59:39.532Z,99109.56
2023-05-10T22:09:40.928Z,99119.09
2023-05-10T22:19:42.490Z,99104.38
2023-05-10T22:29:44.046Z,99107.53
2023-05-10T22:39:45.775Z,99114.56
2023-05-10T22:49:47.180Z,99108.56
2023-05-10T22:59:48.732Z,99117.03
2023-05-10T23:09:50.118Z,99130.34
2023-05-10T23:19:51.489Z,99130.13
2023-05-10T23:29:55.427Z,99125.78
2023-05-10T23:39:56.929Z,99123.72
2023-05-10T23:49:58.439Z,99127.44
2023-05-10T23:59:59.822Z,99126.19
